Time;durP1;ratioP1;P1;durP2;ratioP2;P2;SDS_P1;SDS_P2;PMS_P1;PMS_P2;Temp;Humidity;BMP_temperature;BMP_pressure;BME280_temperature;BME280_humidity;BME280_pressure;Samples;Min_cycle;Max_cycle;Signal;HPM_P1;HPM_P2
2020/12/28 00:01:50;;;;;;;45.40;23.97;;;;;;;;;;4405514;32;20231;-86
2020/12/28 00:04:15;;;;;;;49.70;24.83;;;;;;;;;;4405504;32;20170;-86
2020/12/28 00:06:45;;;;;;;50.20;24.63;;;;;;;;;;4405551;32;20242;-85
2020/12/28 00:09:10;;;;;;;47.43;26.03;;;;;;;;;;4405805;32;20513;-86
2020/12/28 00:11:38;;;;;;;51.00;24.40;;;;;;;;;;4405851;32;20173;-86
2020/12/28 00:14:03;;;;;;;53.20;27.00;;;;;;;;;;4405333;32;20193;-86
2020/12/28 00:16:38;;;;;;;48.63;24.97;;;;;;;;;;4405378;32;20208;-86
2020/12/28 00:19:03;;;;;;;46.27;23.17;;;;;;;;;;4407310;32;20165;-86
2020/12/28 00:21:29;;;;;;;58.40;26.23;;;;;;;;;;4406404;32;20214;-86
2020/12/28 00:23:54;;;;;;;45.53;23.67;;;;;;;;;;4405258;32;20592;-86
2020/12/28 00:26:19;;;;;;;46.53;25.03;;;;;;;;;;4405364;32;20166;-86
2020/12/28 00:28:45;;;;;;;44.60;23.70;;;;;;;;;;4405657;32;20180;-87
2020/12/28 00:31:10;;;;;;;44.27;23.27;;;;;;;;;;4405614;32;20182;-86
2020/12/28 00:33:39;;;;;;;41.83;22.63;;;;;;;;;;4405754;32;20495;-85
2020/12/28 00:36:04;;;;;;;42.73;22.47;;;;;;;;;;4405532;32;20197;-86
2020/12/28 00:38:30;;;;;;;48.67;23.30;;;;;;;;;;4405892;32;20532;-86
2020/12/28 00:40:55;;;;;;;37.90;21.33;;;;;;;;;;4405515;32;20162;-86
2020/12/28 00:43:20;;;;;;;38.67;22.00;;;;;;;;;;4405110;32;20158;-86
2020/12/28 00:45:46;;;;;;;40.93;22.17;;;;;;;;;;4404911;32;20170;-86
2020/12/28 00:48:12;;;;;;;44.67;22.60;;;;;;;;;;4405509;32;20181;-86
2020/12/28 00:50:37;;;;;;;47.77;23.50;;;;;;;;;;4404860;32;20169;-86
2020/12/28 00:53:04;;;;;;;42.93;23.17;;;;;;;;;;4425370;32;20223;-86
2020/12/28 00:55:29;;;;;;;43.70;23.50;;;;;;;;;;4422885;32;20229;-86
2020/12/28 00:57:54;;;;;;;42.13;21.60;;;;;;;;;;4422448;32;20188;-85
2020/12/28 01:00:29;;;;;;;47.23;22.97;;;;;;;;;;4422301;32;20214;-86
2020/12/28 01:02:54;;;;;;;46.20;23.17;;;;;;;;;;4422738;32;20188;-86
2020/12/28 01:05:19;;;;;;;46.70;22.43;;;;;;;;;;4422256;32;20624;-85
2020/12/28 01:07:44;;;;;;;40.60;22.33;;;;;;;;;;4422275;32;20172;-85
2020/12/28 01:10:10;;;;;;;45.40;24.43;;;;;;;;;;4423147;32;20204;-86
2020/12/28 01:12:35;;;;;;;45.70;22.87;;;;;;;;;;4422907;32;20217;-86
2020/12/28 01:15:13;;;;;;;41.63;22.47;;;;;;;;;;4437510;32;20156;-85
2020/12/28 01:17:39;;;;;;;47.60;23.03;;;;;;;;;;4422239;32;20184;-86
2020/12/28 01:20:04;;;;;;;41.77;21.90;;;;;;;;;;4422500;32;20217;-86
2020/12/28 01:22:30;;;;;;;47.27;23.53;;;;;;;;;;4422413;32;20169;-86
2020/12/28 01:24:55;;;;;;;44.57;22.03;;;;;;;;;;4421855;32;20602;-86
2020/12/28 01:27:21;;;;;;;46.30;24.37;;;;;;;;;;4422503;32;20161;-86
2020/12/28 01:29:48;;;;;;;51.43;23.67;;;;;;;;;;4422001;32;20508;-86
2020/12/28 01:32:16;;;;;;;52.57;24.00;;;;;;;;;;4422027;32;20196;-86
2020/12/28 01:34:42;;;;;;;40.00;23.63;;;;;;;;;;4422050;32;20169;-86
2020/12/28 01:37:07;;;;;;;49.13;23.77;;;;;;;;;;4421888;32;20486;-86
2020/12/28 01:39:32;;;;;;;43.67;22.13;;;;;;;;;;4422496;32;20196;-86
2020/12/28 01:41:58;;;;;;;49.90;23.77;;;;;;;;;;4422387;32;20559;-86
2020/12/28 01:44:23;;;;;;;47.17;23.13;;;;;;;;;;4421845;32;20243;-86
2020/12/28 01:46:48;;;;;;;48.33;22.93;;;;;;;;;;4422120;32;20651;-86
2020/12/28 01:49:14;;;;;;;59.53;26.30;;;;;;;;;;4422526;32;20509;-86
2020/12/28 01:51:40;;;;;;;64.73;28.67;;;;;;;;;;4422427;32;20162;-86
2020/12/28 01:54:05;;;;;;;60.67;28.67;;;;;;;;;;4422183;32;20552;-86
2020/12/28 01:56:33;;;;;;;54.43;26.47;;;;;;;;;;4422453;32;20169;-86
2020/12/28 01:58:58;;;;;;;52.33;25.47;;;;;;;;;;4421606;32;20497;-86
2020/12/28 02:01:25;;;;;;;55.40;27.00;;;;;;;;;;4421720;32;20192;-87
2020/12/28 02:03:50;;;;;;;56.57;26.53;;;;;;;;;;4421968;32;20165;-87
2020/12/28 02:06:16;;;;;;;70.40;30.53;;;;;;;;;;4421744;32;20233;-86
2020/12/28 02:08:41;;;;;;;71.50;28.40;;;;;;;;;;4419859;32;20582;-86
2020/12/28 02:11:06;;;;;;;60.43;29.20;;;;;;;;;;4406328;32;20587;-86
2020/12/28 02:13:32;;;;;;;78.73;31.47;;;;;;;;;;4407414;32;20166;-87
2020/12/28 02:16:00;;;;;;;73.03;31.23;;;;;;;;;;4407855;32;20516;-86
2020/12/28 02:18:25;;;;;;;86.40;34.90;;;;;;;;;;4406365;32;20170;-87
2020/12/28 02:20:51;;;;;;;92.60;34.30;;;;;;;;;;4406242;32;20567;-87
2020/12/28 02:23:16;;;;;;;82.60;32.33;;;;;;;;;;4406913;32;20166;-86
2020/12/28 02:25:41;;;;;;;110.17;35.87;;;;;;;;;;4406513;32;20203;-86
2020/12/28 02:28:07;;;;;;;84.27;33.63;;;;;;;;;;4406492;32;20162;-86
2020/12/28 02:30:35;;;;;;;94.20;34.40;;;;;;;;;;4406889;32;20189;-87
2020/12/28 02:33:01;;;;;;;90.20;34.43;;;;;;;;;;4420998;32;20173;-86
2020/12/28 02:35:27;;;;;;;90.10;34.13;;;;;;;;;;4421394;32;20188;-87
2020/12/28 02:37:52;;;;;;;80.37;30.30;;;;;;;;;;4421513;32;20216;-87
2020/12/28 02:40:17;;;;;;;77.17;30.60;;;;;;;;;;4421894;32;20173;-86
2020/12/28 02:42:46;;;;;;;83.00;31.17;;;;;;;;;;4421426;32;20637;-86
2020/12/28 02:45:11;;;;;;;90.60;34.13;;;;;;;;;;4421936;32;20513;-87
2020/12/28 02:47:41;;;;;;;81.80;31.87;;;;;;;;;;4421365;32;20188;-87
2020/12/28 02:50:06;;;;;;;83.40;30.83;;;;;;;;;;4421730;32;20165;-87
2020/12/28 02:52:32;;;;;;;78.37;29.17;;;;;;;;;;4412795;32;20215;-87
2020/12/28 02:54:59;;;;;;;79.70;30.10;;;;;;;;;;4403824;32;20517;-87
2020/12/28 02:57:29;;;;;;;78.60;29.83;;;;;;;;;;4403828;32;20161;-86
2020/12/28 02:59:55;;;;;;;74.60;29.70;;;;;;;;;;4403737;32;20162;-87
2020/12/28 03:02:23;;;;;;;73.33;28.97;;;;;;;;;;4403541;32;20185;-86
2020/12/28 03:04:49;;;;;;;69.23;28.37;;;;;;;;;;4403395;32;20221;-87
2020/12/28 03:07:20;;;;;;;90.07;32.67;;;;;;;;;;4403420;32;20617;-86
2020/12/28 03:09:48;;;;;;;79.20;29.83;;;;;;;;;;4403674;32;20204;-87
2020/12/28 03:12:16;;;;;;;97.30;34.30;;;;;;;;;;4403897;32;20212;-86
2020/12/28 03:14:44;;;;;;;84.70;30.63;;;;;;;;;;4403335;32;20598;-86
2020/12/28 03:17:17;;;;;;;77.33;30.10;;;;;;;;;;4403664;32;20157;-86
2020/12/28 03:19:43;;;;;;;66.97;27.67;;;;;;;;;;4404398;32;20166;-86
2020/12/28 03:22:11;;;;;;;84.83;30.17;;;;;;;;;;4405689;32;20621;-86
2020/12/28 03:24:36;;;;;;;78.07;29.77;;;;;;;;;;4406662;32;20174;-86
2020/12/28 03:27:02;;;;;;;69.03;28.63;;;;;;;;;;4406152;32;20166;-86
2020/12/28 03:29:34;;;;;;;72.53;29.70;;;;;;;;;;4406061;32;20591;-86
2020/12/28 03:32:00;;;;;;;67.60;28.83;;;;;;;;;;4406060;32;20599;-86
2020/12/28 03:34:26;;;;;;;65.43;28.77;;;;;;;;;;4406276;32;20169;-86
2020/12/28 03:36:51;;;;;;;62.87;27.87;;;;;;;;;;4406366;32;20527;-86
2020/12/28 03:39:16;;;;;;;61.67;28.47;;;;;;;;;;4406550;32;20626;-86
2020/12/28 03:41:42;;;;;;;62.00;27.63;;;;;;;;;;4406714;32;20242;-86
2020/12/28 03:44:07;;;;;;;69.30;29.30;;;;;;;;;;4405645;32;20455;-86
2020/12/28 03:46:33;;;;;;;70.43;29.20;;;;;;;;;;4405792;32;20204;-86
2020/12/28 03:48:58;;;;;;;70.73;29.27;;;;;;;;;;4406875;32;20219;-86
2020/12/28 03:51:29;;;;;;;63.70;27.87;;;;;;;;;;4405940;32;20274;-86
2020/12/28 03:54:02;;;;;;;70.67;30.77;;;;;;;;;;4405672;32;20231;-87
2020/12/28 03:56:30;;;;;;;75.03;30.57;;;;;;;;;;4405661;32;20162;-87
2020/12/28 03:58:55;;;;;;;77.23;30.17;;;;;;;;;;4405620;32;20162;-87
2020/12/28 04:01:21;;;;;;;76.90;29.67;;;;;;;;;;4405592;32;20184;-86
2020/12/28 04:03:50;;;;;;;91.80;32.63;;;;;;;;;;4406066;32;20579;-86
2020/12/28 04:06:19;;;;;;;75.20;28.23;;;;;;;;;;4405872;32;20170;-86
2020/12/28 04:08:45;;;;;;;84.73;30.03;;;;;;;;;;4405999;32;20166;-86
2020/12/28 04:11:15;;;;;;;71.30;28.37;;;;;;;;;;4405440;32;20232;-86
2020/12/28 04:13:41;;;;;;;77.10;28.73;;;;;;;;;;4405413;32;20162;-86
2020/12/28 04:16:08;;;;;;;73.67;29.53;;;;;;;;;;4405326;32;20169;-86
2020/12/28 04:18:41;;;;;;;74.53;28.03;;;;;;;;;;4405293;32;20194;-86
2020/12/28 04:21:13;;;;;;;82.43;29.83;;;;;;;;;;4405816;32;20165;-87
2020/12/28 04:23:43;;;;;;;80.90;29.83;;;;;;;;;;4405858;32;20231;-87
2020/12/28 04:26:14;;;;;;;80.93;28.63;;;;;;;;;;4406361;32;20215;-86
2020/12/28 04:28:45;;;;;;;87.80;30.97;;;;;;;;;;4406105;32;20173;-86
2020/12/28 04:31:19;;;;;;;96.70;30.80;;;;;;;;;;4405621;32;20182;-86
2020/12/28 04:33:50;;;;;;;83.90;29.50;;;;;;;;;;4405659;32;20241;-86
2020/12/28 04:36:20;;;;;;;88.90;30.40;;;;;;;;;;4405312;32;20157;-86
2020/12/28 04:38:45;;;;;;;86.67;30.27;;;;;;;;;;4405219;32;20162;-85
2020/12/28 04:41:14;;;;;;;94.90;31.20;;;;;;;;;;4405072;32;20613;-86
2020/12/28 04:43:39;;;;;;;88.60;31.47;;;;;;;;;;4405434;32;20624;-86
2020/12/28 04:46:06;;;;;;;87.00;31.20;;;;;;;;;;4405553;32;20170;-86
2020/12/28 04:48:37;;;;;;;102.13;31.53;;;;;;;;;;4405760;32;20196;-86
2020/12/28 04:51:07;;;;;;;99.20;34.80;;;;;;;;;;4405576;32;20158;-86
2020/12/28 04:53:35;;;;;;;89.90;31.70;;;;;;;;;;4406785;32;20170;-87
2020/12/28 04:56:02;;;;;;;93.40;32.87;;;;;;;;;;4405073;32;20192;-87
2020/12/28 04:58:28;;;;;;;98.57;31.17;;;;;;;;;;4406409;32;20161;-86
2020/12/28 05:01:02;;;;;;;90.20;30.77;;;;;;;;;;4405552;32;20228;-86
2020/12/28 05:03:30;;;;;;;77.67;28.67;;;;;;;;;;4404950;32;20219;-87
2020/12/28 05:05:56;;;;;;;81.53;30.50;;;;;;;;;;4404035;32;20225;-87
2020/12/28 05:08:26;;;;;;;70.70;28.60;;;;;;;;;;4404626;32;20660;-86
2020/12/28 05:10:54;;;;;;;60.13;24.07;;;;;;;;;;4405736;32;20176;-86
2020/12/28 05:13:20;;;;;;;70.73;26.97;;;;;;;;;;4404879;32;20165;-87
2020/12/28 05:15:55;;;;;;;66.13;27.63;;;;;;;;;;4405089;32;20162;-86
2020/12/28 05:18:26;;;;;;;71.40;28.03;;;;;;;;;;4404532;32;20208;-86
2020/12/28 05:20:53;;;;;;;67.67;26.60;;;;;;;;;;4405674;32;20211;-86
2020/12/28 05:23:19;;;;;;;58.60;25.03;;;;;;;;;;4404949;32;20158;-86
2020/12/28 05:25:46;;;;;;;55.97;24.60;;;;;;;;;;4404172;32;20219;-86
2020/12/28 05:28:14;;;;;;;62.37;26.77;;;;;;;;;;4404463;32;20174;-86
2020/12/28 05:30:42;;;;;;;56.73;25.03;;;;;;;;;;4404481;32;20177;-86
2020/12/28 05:33:12;;;;;;;55.67;24.83;;;;;;;;;;4404837;32;20182;-86
2020/12/28 05:35:40;;;;;;;53.83;25.07;;;;;;;;;;4404661;32;20166;-86
2020/12/28 05:38:06;;;;;;;49.87;24.97;;;;;;;;;;4404348;32;20166;-86
2020/12/28 05:40:39;;;;;;;50.40;25.10;;;;;;;;;;4404319;32;20170;-86
2020/12/28 05:43:07;;;;;;;46.20;23.37;;;;;;;;;;4404155;32;20192;-86
2020/12/28 05:45:33;;;;;;;49.27;23.53;;;;;;;;;;4404085;32;20169;-86
2020/12/28 05:48:06;;;;;;;48.53;23.97;;;;;;;;;;4404189;32;20193;-86
2020/12/28 05:50:34;;;;;;;44.87;23.80;;;;;;;;;;4406930;32;20166;-86
2020/12/28 05:53:02;;;;;;;46.53;23.83;;;;;;;;;;4410457;32;20199;-87
2020/12/28 05:55:31;;;;;;;46.20;23.10;;;;;;;;;;4419159;32;20169;-86
2020/12/28 05:57:59;;;;;;;43.67;22.53;;;;;;;;;;4420424;32;20161;-86
2020/12/28 06:00:27;;;;;;;45.93;21.97;;;;;;;;;;4419778;32;20205;-86
2020/12/28 06:03:01;;;;;;;40.03;22.07;;;;;;;;;;4419652;32;20229;-86
2020/12/28 06:05:29;;;;;;;45.70;22.43;;;;;;;;;;4419693;32;20218;-86
2020/12/28 06:07:55;;;;;;;44.63;22.23;;;;;;;;;;4419127;32;20201;-86
2020/12/28 06:10:25;;;;;;;46.47;22.60;;;;;;;;;;4410669;32;20232;-86
2020/12/28 06:12:55;;;;;;;49.63;21.97;;;;;;;;;;4404500;32;20188;-87
2020/12/28 06:15:25;;;;;;;45.10;21.70;;;;;;;;;;4403810;32;20170;-86
2020/12/28 06:17:53;;;;;;;49.83;22.40;;;;;;;;;;4404204;32;20181;-86
2020/12/28 06:20:28;;;;;;;44.03;21.03;;;;;;;;;;4403869;32;20239;-86
2020/12/28 06:23:02;;;;;;;43.30;20.23;;;;;;;;;;4403874;32;20215;-86
2020/12/28 06:25:29;;;;;;;40.87;19.23;;;;;;;;;;4412575;32;20173;-87
2020/12/28 06:27:55;;;;;;;38.57;18.37;;;;;;;;;;4418788;32;20184;-86
2020/12/28 06:30:24;;;;;;;36.43;17.07;;;;;;;;;;4418989;32;20162;-86
2020/12/28 06:32:52;;;;;;;38.53;18.40;;;;;;;;;;4419047;32;20229;-86
2020/12/28 06:35:27;;;;;;;35.07;18.40;;;;;;;;;;4418758;32;20181;-87
2020/12/28 06:37:54;;;;;;;38.60;18.43;;;;;;;;;;4419374;32;20161;-86
2020/12/28 06:41:08;;;;;;;36.50;18.30;;;;;;;;;;4420036;32;20194;-86
2020/12/28 06:43:44;;;;;;;37.57;17.83;;;;;;;;;;4398624;32;20371;-86
2020/12/28 06:46:12;;;;;;;39.63;18.07;;;;;;;;;;4419129;32;20176;-86
2020/12/28 06:48:43;;;;;;;39.07;18.47;;;;;;;;;;4418725;32;20183;-87
2020/12/28 06:51:09;;;;;;;42.87;19.30;;;;;;;;;;4419266;32;20166;-86
2020/12/28 06:53:39;;;;;;;40.57;18.00;;;;;;;;;;4418589;32;20242;-87
2020/12/28 06:56:14;;;;;;;36.17;16.30;;;;;;;;;;4421634;32;20224;-87
2020/12/28 06:58:44;;;;;;;39.00;17.47;;;;;;;;;;4422067;32;20241;-88
2020/12/28 07:01:15;;;;;;;38.67;17.83;;;;;;;;;;4421551;32;20554;-87
2020/12/28 07:03:40;;;;;;;34.83;16.23;;;;;;;;;;4422496;32;20149;-86
2020/12/28 07:06:08;;;;;;;38.00;17.00;;;;;;;;;;4421457;32;20199;-85
2020/12/28 07:08:35;;;;;;;37.13;17.80;;;;;;;;;;4421989;32;20187;-85
2020/12/28 07:11:07;;;;;;;31.63;15.57;;;;;;;;;;4421756;32;20512;-85
2020/12/28 07:13:38;;;;;;;36.03;16.00;;;;;;;;;;4421350;32;20575;-84
2020/12/28 07:16:07;;;;;;;27.13;14.43;;;;;;;;;;4421654;32;20287;-85
2020/12/28 07:18:32;;;;;;;29.20;14.43;;;;;;;;;;4420483;32;20169;-85
2020/12/28 07:21:01;;;;;;;25.93;13.97;;;;;;;;;;4420945;32;20528;-86
2020/12/28 07:23:27;;;;;;;24.07;12.23;;;;;;;;;;4421404;32;20297;-85
2020/12/28 07:26:05;;;;;;;24.93;12.60;;;;;;;;;;4421148;32;20510;-86
2020/12/28 07:28:34;;;;;;;24.30;12.13;;;;;;;;;;4420718;32;20162;-86
2020/12/28 07:31:00;;;;;;;27.77;12.23;;;;;;;;;;4408591;32;20181;-82
2020/12/28 07:33:25;;;;;;;22.63;11.77;;;;;;;;;;4420292;32;20225;-85
2020/12/28 07:36:07;;;;;;;21.90;11.20;;;;;;;;;;4419535;32;20165;-86
2020/12/28 07:38:35;;;;;;;16.30;9.20;;;;;;;;;;4408286;32;20173;-85
2020/12/28 07:41:00;;;;;;;21.40;10.33;;;;;;;;;;4421056;32;20162;-85
2020/12/28 07:43:27;;;;;;;18.17;10.67;;;;;;;;;;4425989;32;20203;-86
2020/12/28 07:45:53;;;;;;;20.57;10.33;;;;;;;;;;4413337;32;20591;-85
2020/12/28 07:48:19;;;;;;;21.90;10.23;;;;;;;;;;4405802;32;20158;-85
2020/12/28 07:50:49;;;;;;;19.40;10.17;;;;;;;;;;4405627;32;20504;-86
2020/12/28 07:53:21;;;;;;;22.23;10.87;;;;;;;;;;4412696;32;20193;-86
2020/12/28 07:55:51;;;;;;;20.03;10.33;;;;;;;;;;4419168;32;20173;-86
2020/12/28 07:58:23;;;;;;;22.50;11.10;;;;;;;;;;4420019;32;20173;-86
2020/12/28 08:00:52;;;;;;;20.37;11.03;;;;;;;;;;4420553;32;20221;-85
2020/12/28 08:03:17;;;;;;;23.77;10.97;;;;;;;;;;4420896;32;20216;-86
2020/12/28 08:05:44;;;;;;;20.17;10.13;;;;;;;;;;4420063;32;20231;-86
2020/12/28 08:08:24;;;;;;;27.27;11.70;;;;;;;;;;4419980;32;20158;-89
2020/12/28 08:10:54;;;;;;;18.50;9.53;;;;;;;;;;4420958;32;20614;-88
2020/12/28 08:13:37;;;;;;;22.57;10.50;;;;;;;;;;4418584;32;20204;-86
2020/12/28 08:16:09;;;;;;;20.00;9.83;;;;;;;;;;4433276;32;20188;-85
2020/12/28 08:18:49;;;;;;;17.70;9.53;;;;;;;;;;4421666;32;20357;-87
2020/12/28 08:21:14;;;;;;;19.73;10.53;;;;;;;;;;4421937;32;20213;-87
2020/12/28 08:23:40;;;;;;;19.37;9.90;;;;;;;;;;4421469;32;20158;-87
2020/12/28 08:26:20;;;;;;;20.87;10.57;;;;;;;;;;4421537;32;20177;-88
2020/12/28 08:28:54;;;;;;;19.83;10.43;;;;;;;;;;4421560;32;20161;-88
2020/12/28 08:31:28;;;;;;;17.00;9.50;;;;;;;;;;4421341;32;20161;-87
2020/12/28 08:34:03;;;;;;;17.73;9.43;;;;;;;;;;4419360;32;20196;-87
2020/12/28 08:36:29;;;;;;;19.17;9.30;;;;;;;;;;4420457;32;20173;-88
2020/12/28 08:38:57;;;;;;;22.47;8.70;;;;;;;;;;4420371;32;20633;-87
2020/12/28 08:41:22;;;;;;;17.33;9.30;;;;;;;;;;4421641;32;20146;-87
2020/12/28 08:43:53;;;;;;;15.27;8.37;;;;;;;;;;4421080;32;20598;-87
2020/12/28 08:46:23;;;;;;;14.77;9.03;;;;;;;;;;4419998;32;20598;-88
2020/12/28 08:48:48;;;;;;;15.20;7.97;;;;;;;;;;4420456;32;20169;-88
2020/12/28 08:51:16;;;;;;;21.70;9.50;;;;;;;;;;4419630;32;20680;-87
2020/12/28 08:53:49;;;;;;;15.03;8.90;;;;;;;;;;4420168;32;20215;-88
2020/12/28 08:56:14;;;;;;;17.07;8.83;;;;;;;;;;4420545;32;20244;-88
2020/12/28 08:58:39;;;;;;;15.43;7.83;;;;;;;;;;4415248;32;20169;-87
2020/12/28 09:01:13;;;;;;;14.83;7.83;;;;;;;;;;4405770;32;20154;-88
2020/12/28 09:03:39;;;;;;;15.00;7.93;;;;;;;;;;4411244;32;20598;-88
2020/12/28 09:06:04;;;;;;;13.33;7.53;;;;;;;;;;4419338;32;20242;-88
2020/12/28 09:08:32;;;;;;;23.90;10.90;;;;;;;;;;4414381;32;20608;-87
2020/12/28 09:10:58;;;;;;;15.47;8.37;;;;;;;;;;4407250;32;20656;-88
2020/12/28 09:13:29;;;;;;;15.47;8.30;;;;;;;;;;4419984;32;20161;-89
2020/12/28 09:16:02;;;;;;;15.83;8.53;;;;;;;;;;4399937;32;20227;-88
2020/12/28 09:18:28;;;;;;;15.40;8.80;;;;;;;;;;4404902;32;20464;-88
2020/12/28 09:20:53;;;;;;;14.63;9.50;;;;;;;;;;4404442;32;20277;-87
2020/12/28 09:23:24;;;;;;;15.50;8.77;;;;;;;;;;4408403;32;20157;-88
2020/12/28 09:25:55;;;;;;;17.07;8.27;;;;;;;;;;4419921;32;20157;-87
2020/12/28 09:28:33;;;;;;;15.37;8.37;;;;;;;;;;4422540;32;20184;-88
2020/12/28 09:31:15;;;;;;;15.07;8.40;;;;;;;;;;4423518;32;20150;-89
2020/12/28 09:33:44;;;;;;;16.23;8.40;;;;;;;;;;4419887;32;20586;-88
2020/12/28 09:36:23;;;;;;;16.03;7.57;;;;;;;;;;4419067;32;20165;-87
2020/12/28 09:38:52;;;;;;;11.30;7.37;;;;;;;;;;4419769;32;20509;-88
2020/12/28 09:41:25;;;;;;;15.73;6.90;;;;;;;;;;4419294;32;20158;-87
2020/12/28 09:43:56;;;;;;;17.77;10.37;;;;;;;;;;4419068;32;20591;-88
2020/12/28 09:46:33;;;;;;;16.83;8.67;;;;;;;;;;4419284;32;20161;-88
2020/12/28 09:49:05;;;;;;;13.47;6.87;;;;;;;;;;4421087;32;20492;-88
2020/12/28 09:51:30;;;;;;;14.40;6.10;;;;;;;;;;4407787;32;20182;-88
2020/12/28 09:53:58;;;;;;;15.10;6.43;;;;;;;;;;4419428;32;20223;-88
2020/12/28 09:56:24;;;;;;;13.60;6.27;;;;;;;;;;4419884;32;20234;-89
2020/12/28 09:58:52;;;;;;;10.83;6.80;;;;;;;;;;4406940;32;20490;-88
2020/12/28 10:01:20;;;;;;;17.33;6.73;;;;;;;;;;4419616;32;20161;-86
2020/12/28 10:03:46;;;;;;;10.73;5.60;;;;;;;;;;4420523;32;20168;-87
2020/12/28 10:06:35;;;;;;;18.93;6.33;;;;;;;;;;4423141;32;20166;-83
2020/12/28 10:09:06;;;;;;;19.17;5.57;;;;;;;;;;4419894;32;20658;-84
2020/12/28 10:11:34;;;;;;;12.00;5.13;;;;;;;;;;4418823;32;20153;-85
2020/12/28 10:14:13;;;;;;;14.83;5.63;;;;;;;;;;4417070;32;20157;-85
2020/12/28 10:16:42;;;;;;;13.33;5.83;;;;;;;;;;4412347;32;20172;-86
2020/12/28 10:19:12;;;;;;;10.97;5.33;;;;;;;;;;4418633;32;20158;-86
2020/12/28 10:21:51;;;;;;;11.53;5.67;;;;;;;;;;4419017;32;20182;-87
2020/12/28 10:24:19;;;;;;;11.27;4.73;;;;;;;;;;4419597;32;20157;-86
2020/12/28 10:26:51;;;;;;;9.87;4.87;;;;;;;;;;4419789;32;20246;-86
2020/12/28 10:29:19;;;;;;;11.17;4.90;;;;;;;;;;4418920;32;20181;-86
2020/12/28 10:31:46;;;;;;;9.70;4.63;;;;;;;;;;4422135;32;20185;-86
2020/12/28 10:34:12;;;;;;;9.80;4.23;;;;;;;;;;4421839;32;20214;-86
2020/12/28 10:36:49;;;;;;;8.63;3.93;;;;;;;;;;4421969;32;20287;-85
2020/12/28 10:39:27;;;;;;;9.43;4.33;;;;;;;;;;4422881;32;20244;-85
2020/12/28 10:41:52;;;;;;;6.03;3.47;;;;;;;;;;4422828;32;20196;-85
2020/12/28 10:44:28;;;;;;;11.97;4.20;;;;;;;;;;4421817;32;20615;-86
2020/12/28 10:46:57;;;;;;;9.23;4.07;;;;;;;;;;4421475;32;20200;-86
2020/12/28 10:49:25;;;;;;;10.13;3.60;;;;;;;;;;4420683;32;20173;-84
2020/12/28 10:51:54;;;;;;;9.30;3.50;;;;;;;;;;4421727;32;20185;-85
2020/12/28 10:54:27;;;;;;;9.87;3.50;;;;;;;;;;4421113;32;20165;-84
2020/12/28 10:56:55;;;;;;;12.30;3.70;;;;;;;;;;4409866;32;20177;-85
2020/12/28 10:59:20;;;;;;;7.30;3.33;;;;;;;;;;4406041;32;20165;-85
2020/12/28 11:01:51;;;;;;;10.40;3.30;;;;;;;;;;4406125;32;20520;-85
2020/12/28 11:04:19;;;;;;;7.83;3.40;;;;;;;;;;4406083;32;20169;-84
2020/12/28 11:06:47;;;;;;;10.27;3.13;;;;;;;;;;4406146;32;20486;-85
2020/12/28 11:09:12;;;;;;;9.40;3.37;;;;;;;;;;4406050;32;20185;-85
2020/12/28 11:11:40;;;;;;;7.67;3.00;;;;;;;;;;4405848;32;20162;-85
2020/12/28 11:14:06;;;;;;;8.40;3.90;;;;;;;;;;4405913;32;20223;-86
2020/12/28 11:16:34;;;;;;;7.77;3.13;;;;;;;;;;4406909;32;20222;-84
2020/12/28 11:19:02;;;;;;;9.13;3.13;;;;;;;;;;4408041;32;20197;-84
2020/12/28 11:21:27;;;;;;;7.10;2.80;;;;;;;;;;4420950;32;20208;-87
2020/12/28 11:24:02;;;;;;;8.80;2.87;;;;;;;;;;4420865;32;20492;-86
2020/12/28 11:26:28;;;;;;;8.80;2.87;;;;;;;;;;4421201;32;20157;-86
2020/12/28 11:28:59;;;;;;;7.77;3.20;;;;;;;;;;4420610;32;20326;-87
2020/12/28 11:31:28;;;;;;;6.13;2.80;;;;;;;;;;4420479;32;20165;-87
2020/12/28 11:33:54;;;;;;;7.37;3.03;;;;;;;;;;4421391;32;20232;-87
2020/12/28 11:36:25;;;;;;;7.47;2.80;;;;;;;;;;4421213;32;20158;-87
2020/12/28 11:38:53;;;;;;;8.23;2.70;;;;;;;;;;4421759;32;20204;-87
2020/12/28 11:41:21;;;;;;;5.10;2.67;;;;;;;;;;4428652;32;20166;-86
2020/12/28 11:43:49;;;;;;;7.03;3.47;;;;;;;;;;4420988;32;20599;-87
2020/12/28 11:46:14;;;;;;;7.63;2.73;;;;;;;;;;4405619;32;20208;-87
2020/12/28 11:48:50;;;;;;;8.93;2.93;;;;;;;;;;4405888;32;20211;-86
2020/12/28 11:51:19;;;;;;;9.93;4.43;;;;;;;;;;4406100;32;20158;-85
2020/12/28 11:53:47;;;;;;;10.23;3.10;;;;;;;;;;4405364;32;20209;-86
2020/12/28 11:56:19;;;;;;;5.63;2.40;;;;;;;;;;4405575;32;20169;-86
2020/12/28 11:58:45;;;;;;;8.90;2.57;;;;;;;;;;4420820;32;20249;-86
2020/12/28 12:01:20;;;;;;;6.97;2.30;;;;;;;;;;4420717;32;20162;-86
2020/12/28 12:03:49;;;;;;;8.87;2.93;;;;;;;;;;4420377;32;20161;-86
2020/12/28 12:06:20;;;;;;;5.63;2.47;;;;;;;;;;4420702;32;20197;-86
2020/12/28 12:11:33;;;;;;;5.90;2.20;;;;;;;;;;4422025;32;20169;-86
2020/12/28 12:13:59;;;;;;;8.73;2.57;;;;;;;;;;4421368;32;20162;-86
2020/12/28 12:16:27;;;;;;;9.23;2.70;;;;;;;;;;4421231;32;20173;-85
2020/12/28 12:18:58;;;;;;;6.73;2.33;;;;;;;;;;4420749;32;20158;-86
2020/12/28 12:21:29;;;;;;;5.30;2.27;;;;;;;;;;4421915;32;20161;-86
2020/12/28 12:23:54;;;;;;;7.97;3.07;;;;;;;;;;4421499;32;20250;-86
2020/12/28 12:26:23;;;;;;;7.73;3.17;;;;;;;;;;4421052;32;20153;-85
2020/12/28 12:28:48;;;;;;;6.27;2.63;;;;;;;;;;4420880;32;20158;-86
2020/12/28 12:31:19;;;;;;;6.83;2.70;;;;;;;;;;4421708;32;20232;-86
2020/12/28 12:33:49;;;;;;;6.73;2.60;;;;;;;;;;4421434;32;20176;-86
2020/12/28 12:36:28;;;;;;;8.53;3.37;;;;;;;;;;4420755;32;20518;-85
2020/12/28 12:38:57;;;;;;;9.60;3.17;;;;;;;;;;4419976;32;20292;-86
2020/12/28 12:41:24;;;;;;;7.50;3.03;;;;;;;;;;4422861;32;20186;-86
2020/12/28 12:43:55;;;;;;;8.97;3.53;;;;;;;;;;4421487;32;20193;-86
2020/12/28 12:46:23;;;;;;;5.90;3.07;;;;;;;;;;4419800;32;20162;-86
2020/12/28 12:48:48;;;;;;;6.63;3.20;;;;;;;;;;4419608;32;20166;-85
2020/12/28 12:51:33;;;;;;;6.63;3.23;;;;;;;;;;4419855;32;20270;-85
2020/12/28 12:53:58;;;;;;;7.33;3.33;;;;;;;;;;4420560;32;20177;-85
2020/12/28 12:56:24;;;;;;;8.23;3.57;;;;;;;;;;4419621;32;20192;-86
2020/12/28 12:58:50;;;;;;;6.97;3.03;;;;;;;;;;4419438;32;20200;-86
2020/12/28 13:01:16;;;;;;;8.27;3.20;;;;;;;;;;4419795;32;20162;-86
2020/12/28 13:03:41;;;;;;;8.73;3.00;;;;;;;;;;4420087;32;20154;-86
2020/12/28 13:06:07;;;;;;;3.77;2.47;;;;;;;;;;4419696;32;20157;-86
2020/12/28 13:08:38;;;;;;;7.47;3.60;;;;;;;;;;4419712;32;20161;-86
2020/12/28 13:11:04;;;;;;;5.67;2.60;;;;;;;;;;4419887;32;20196;-86
2020/12/28 13:13:45;;;;;;;;;;;;;;;;;;;;;
2020/12/28 13:16:14;;;;;;;9.00;3.40;;;;;;;;;;4421322;32;20149;-85
2020/12/28 13:18:39;;;;;;;7.50;3.47;;;;;;;;;;4420155;32;20595;-85
2020/12/28 13:21:10;;;;;;;7.60;3.20;;;;;;;;;;4419113;32;20199;-85
2020/12/28 13:23:35;;;;;;;6.17;3.30;;;;;;;;;;4419804;32;20484;-86
2020/12/28 13:26:00;;;;;;;6.93;3.93;;;;;;;;;;4419478;32;20242;-85
2020/12/28 13:28:28;;;;;;;7.83;2.83;;;;;;;;;;4419727;32;20166;-85
2020/12/28 13:31:05;;;;;;;7.00;3.07;;;;;;;;;;4419219;32;20169;-86
2020/12/28 13:33:30;;;;;;;7.17;3.30;;;;;;;;;;4419466;32;20161;-86
2020/12/28 13:36:00;;;;;;;5.93;3.50;;;;;;;;;;4419246;32;20176;-86
2020/12/28 13:38:28;;;;;;;6.43;3.53;;;;;;;;;;4419427;32;20182;-86
2020/12/28 13:40:56;;;;;;;7.77;3.87;;;;;;;;;;4419384;32;20254;-86
2020/12/28 13:43:28;;;;;;;6.73;3.70;;;;;;;;;;4419714;32;20161;-86
2020/12/28 13:46:01;;;;;;;8.23;3.40;;;;;;;;;;4419728;32;20196;-86
2020/12/28 13:48:39;;;;;;;6.70;3.33;;;;;;;;;;4419440;32;20158;-87
2020/12/28 13:51:14;;;;;;;5.00;3.00;;;;;;;;;;4419629;32;20264;-86
2020/12/28 13:53:43;;;;;;;6.83;3.33;;;;;;;;;;4407669;32;20168;-85
2020/12/28 13:56:27;;;;;;;7.57;3.47;;;;;;;;;;4435520;32;20224;-86
2020/12/28 13:58:53;;;;;;;7.13;3.20;;;;;;;;;;4421542;32;20153;-83
2020/12/28 14:01:31;;;;;;;7.93;3.17;;;;;;;;;;4421401;32;20239;-84
2020/12/28 14:03:59;;;;;;;6.77;3.17;;;;;;;;;;4420542;32;20157;-83
2020/12/28 14:06:27;;;;;;;5.30;3.70;;;;;;;;;;4421472;32;20204;-84
2020/12/28 14:08:57;;;;;;;8.33;3.30;;;;;;;;;;4421160;32;20635;-85
2020/12/28 14:11:24;;;;;;;8.60;3.80;;;;;;;;;;4421778;32;20158;-85
2020/12/28 14:13:52;;;;;;;6.27;4.40;;;;;;;;;;4421440;32;20157;-85
2020/12/28 14:16:25;;;;;;;7.87;4.67;;;;;;;;;;4422430;32;20185;-84
2020/12/28 14:18:50;;;;;;;7.77;4.40;;;;;;;;;;4421201;32;20217;-85
2020/12/28 14:21:18;;;;;;;7.53;4.23;;;;;;;;;;4421869;32;20162;-85
2020/12/28 14:23:47;;;;;;;9.53;3.83;;;;;;;;;;4421254;32;20192;-85
2020/12/28 14:26:19;;;;;;;8.23;3.97;;;;;;;;;;4420949;32;20203;-85
2020/12/28 14:28:47;;;;;;;9.63;5.00;;;;;;;;;;4420867;32;20491;-86
2020/12/28 14:31:16;;;;;;;9.17;4.13;;;;;;;;;;4421155;32;20207;-85
2020/12/28 14:33:53;;;;;;;9.23;4.50;;;;;;;;;;4421131;32;20161;-85
2020/12/28 14:36:29;;;;;;;7.67;4.50;;;;;;;;;;4420453;32;20183;-85
2020/12/28 14:38:57;;;;;;;9.30;5.10;;;;;;;;;;4420965;32;20197;-85